Time;durP1;ratioP1;P1;durP2;ratioP2;P2;SDS_P1;SDS_P2;PMS_P1;PMS_P2;Temp;Humidity;BMP_temperature;BMP_pressure;BME280_temperature;BME280_humidity;BME280_pressure;Samples;Min_cycle;Max_cycle;Signal;HPM_P1;HPM_P2
2023/05/11 00:02:06;;;;;;;26.80;17.42;;;;;;;;;;4447677;32;20079;-67
2023/05/11 00:04:31;;;;;;;33.03;18.90;;;;;;;;;;4453631;32;20055;-66
2023/05/11 00:06:57;;;;;;;27.87;17.60;;;;;;;;;;4453867;32;20033;-66
2023/05/11 00:09:22;;;;;;;26.37;17.00;;;;;;;;;;4439372;32;20036;-66
2023/05/11 00:11:47;;;;;;;25.55;16.50;;;;;;;;;;4453849;32;20418;-67
2023/05/11 00:14:12;;;;;;;24.70;17.02;;;;;;;;;;4451524;32;20358;-66
2023/05/11 00:16:37;;;;;;;25.27;16.95;;;;;;;;;;4452065;32;20021;-67
2023/05/11 00:19:02;;;;;;;22.70;14.77;;;;;;;;;;4452897;32;20029;-66
2023/05/11 00:21:28;;;;;;;22.05;15.07;;;;;;;;;;4452961;32;20146;-66
2023/05/11 00:23:53;;;;;;;21.73;13.93;;;;;;;;;;4452721;32;20033;-67
2023/05/11 00:26:18;;;;;;;20.30;13.50;;;;;;;;;;4451211;32;20061;-67
2023/05/11 00:28:44;;;;;;;19.17;13.25;;;;;;;;;;4452431;32;20033;-66
2023/05/11 00:31:09;;;;;;;18.25;12.98;;;;;;;;;;4452543;32;20124;-66
2023/05/11 00:33:34;;;;;;;20.90;14.13;;;;;;;;;;4452338;32;20051;-67
2023/05/11 00:35:59;;;;;;;16.33;12.18;;;;;;;;;;4449919;32;20390;-66
2023/05/11 00:38:25;;;;;;;18.65;13.35;;;;;;;;;;4452944;32;20029;-67
2023/05/11 00:40:50;;;;;;;18.23;13.65;;;;;;;;;;4452978;32;20046;-67
2023/05/11 00:43:15;;;;;;;23.45;14.93;;;;;;;;;;4468686;32;20349;-67
2023/05/11 00:45:40;;;;;;;21.55;15.50;;;;;;;;;;4453241;32;20029;-67
2023/05/11 00:48:06;;;;;;;23.05;16.23;;;;;;;;;;4468289;32;20056;-67
2023/05/11 00:50:31;;;;;;;24.75;16.35;;;;;;;;;;4468615;32;20063;-66
2023/05/11 00:52:57;;;;;;;23.77;14.85;;;;;;;;;;4470114;32;20025;-66
2023/05/11 00:55:23;;;;;;;20.73;14.80;;;;;;;;;;4467067;32;20045;-67
2023/05/11 00:57:48;;;;;;;23.98;17.37;;;;;;;;;;4467879;32;20025;-67
2023/05/11 01:00:13;;;;;;;25.10;16.27;;;;;;;;;;4468910;32;20033;-67
2023/05/11 01:02:39;;;;;;;24.70;16.60;;;;;;;;;;4458589;32;20060;-67
2023/05/11 01:05:04;;;;;;;22.85;16.02;;;;;;;;;;4452515;32;20353;-67
2023/05/11 01:07:39;;;;;;;23.17;15.50;;;;;;;;;;4452764;32;20105;-67
2023/05/11 01:10:04;;;;;;;23.38;16.00;;;;;;;;;;4436254;32;20033;-67
2023/05/11 01:12:39;;;;;;;25.50;16.02;;;;;;;;;;4451053;32;20033;-67
2023/05/11 01:15:09;;;;;;;24.20;16.62;;;;;;;;;;4451752;32;20033;-67
2023/05/11 01:17:53;;;;;;;27.13;16.90;;;;;;;;;;4452389;32;20428;-67
2023/05/11 01:20:21;;;;;;;26.50;15.40;;;;;;;;;;4452049;32;20370;-67
2023/05/11 01:23:05;;;;;;;23.95;15.50;;;;;;;;;;4450643;32;20080;-65
2023/05/11 01:25:31;;;;;;;29.12;17.35;;;;;;;;;;4451907;32;20068;-67
2023/05/11 01:27:56;;;;;;;;;;;;;;;;;;4437009;32;20453;-66
2023/05/11 01:30:22;;;;;;;44.15;21.12;;;;;;;;;;4439728;32;19928;-66
2023/05/11 01:32:47;;;;;;;41.70;21.15;;;;;;;;;;4455437;32;20021;-66
2023/05/11 01:35:16;;;;;;;40.92;21.15;;;;;;;;;;4455867;32;20120;-67
2023/05/11 01:37:45;;;;;;;41.60;21.40;;;;;;;;;;4454295;32;20040;-67
2023/05/11 01:40:14;;;;;;;41.25;20.20;;;;;;;;;;4453999;32;20460;-68
2023/05/11 01:42:51;;;;;;;46.40;20.90;;;;;;;;;;4439484;32;20061;-68
2023/05/11 01:45:17;;;;;;;41.92;20.27;;;;;;;;;;4453316;32;20088;-67
2023/05/11 01:47:42;;;;;;;;;;;;;;;;;;4454199;32;20060;-67
2023/05/11 01:50:08;;;;;;;42.10;21.60;;;;;;;;;;4455430;32;19936;-68
2023/05/11 01:52:34;;;;;;;41.55;21.67;;;;;;;;;;4455324;32;20120;-68
2023/05/11 01:55:01;;;;;;;46.80;22.35;;;;;;;;;;4455371;32;20086;-67
2023/05/11 01:57:26;;;;;;;34.33;19.15;;;;;;;;;;4453647;32;20387;-67
2023/05/11 01:59:51;;;;;;;;;;;;;;;;;;4456231;32;20030;-68
2023/05/11 02:02:17;;;;;;;40.17;19.35;;;;;;;;;;4454950;32;19946;-67
2023/05/11 02:04:42;;;;;;;39.67;21.83;;;;;;;;;;4452755;32;20033;-67
2023/05/11 02:07:09;;;;;;;40.60;20.90;;;;;;;;;;4453414;32;20020;-67
2023/05/11 02:09:35;;;;;;;40.78;21.62;;;;;;;;;;4454957;32;20435;-67
2023/05/11 02:12:00;;;;;;;;;;;;;;;;;;4453959;32;20059;-67
2023/05/11 02:14:27;;;;;;;34.35;19.12;;;;;;;;;;4454726;32;19944;-67
2023/05/11 02:16:54;;;;;;;37.28;19.85;;;;;;;;;;4454467;32;20156;-67
2023/05/11 02:19:20;;;;;;;35.47;19.02;;;;;;;;;;4455066;32;20110;-67
2023/05/11 02:21:45;;;;;;;;;;;;;;;;;;4454337;32;20419;-67
2023/05/11 02:24:10;;;;;;;38.28;19.65;;;;;;;;;;4453538;32;19932;-67
2023/05/11 02:26:36;;;;;;;42.40;20.98;;;;;;;;;;4452058;32;20078;-67
2023/05/11 02:29:02;;;;;;;38.33;20.08;;;;;;;;;;4454800;32;20067;-67
2023/05/11 02:31:27;;;;;;;;;;;;;;;;;;4454705;32;20021;-67
2023/05/11 02:33:53;;;;;;;40.92;19.73;;;;;;;;;;4455132;32;19942;-67
2023/05/11 02:36:20;;;;;;;40.20;20.42;;;;;;;;;;4452784;32;20034;-68
2023/05/11 02:38:46;;;;;;;39.25;20.20;;;;;;;;;;4454566;32;20076;-66
2023/05/11 02:41:11;;;;;;;;;;;;;;;;;;4454660;32;20417;-67
2023/05/11 02:43:39;;;;;;;43.70;20.90;;;;;;;;;;4453785;32;19940;-67
2023/05/11 02:46:06;;;;;;;44.50;21.40;;;;;;;;;;4454873;32;20141;-67
2023/05/11 02:48:36;;;;;;;48.50;23.38;;;;;;;;;;4452665;32;20060;-66
2023/05/11 02:51:02;;;;;;;42.10;20.40;;;;;;;;;;4452691;32;20101;-66
2023/05/11 02:53:30;;;;;;;47.28;22.75;;;;;;;;;;4452776;32;20135;-67
2023/05/11 02:55:55;;;;;;;39.80;21.30;;;;;;;;;;4451979;32;20068;-66
2023/05/11 02:58:21;;;;;;;36.80;20.70;;;;;;;;;;4452385;32;20033;-67
2023/05/11 03:00:46;;;;;;;42.55;22.27;;;;;;;;;;4452938;32;20067;-66
2023/05/11 03:03:11;;;;;;;36.70;20.65;;;;;;;;;;4453931;32;20026;-68
2023/05/11 03:05:37;;;;;;;38.10;21.10;;;;;;;;;;4454129;32;20056;-67
2023/05/11 03:08:02;;;;;;;39.15;21.48;;;;;;;;;;4452375;32;20379;-67
2023/05/11 03:10:28;;;;;;;45.08;22.02;;;;;;;;;;4453416;32;20394;-68
2023/05/11 03:12:53;;;;;;;35.03;20.90;;;;;;;;;;4454566;32;20029;-67
2023/05/11 03:15:19;;;;;;;49.55;22.30;;;;;;;;;;4452311;32;20060;-67
2023/05/11 03:17:45;;;;;;;41.37;22.42;;;;;;;;;;4453128;32;20021;-67
2023/05/11 03:20:10;;;;;;;43.25;23.30;;;;;;;;;;4451220;32;20051;-67
2023/05/11 03:22:36;;;;;;;42.25;23.02;;;;;;;;;;4452472;32;20059;-67
2023/05/11 03:25:02;;;;;;;37.92;21.42;;;;;;;;;;4452497;32;20370;-67
2023/05/11 03:27:28;;;;;;;47.92;22.62;;;;;;;;;;4453242;32;20056;-66
2023/05/11 03:29:54;;;;;;;35.35;19.75;;;;;;;;;;4452860;32;20065;-67
2023/05/11 03:32:19;;;;;;;37.50;21.23;;;;;;;;;;4453412;32;20100;-66
2023/05/11 03:34:44;;;;;;;36.60;21.65;;;;;;;;;;4453644;32;20082;-67
2023/05/11 03:37:11;;;;;;;38.55;19.85;;;;;;;;;;4458848;32;20078;-66
2023/05/11 03:39:37;;;;;;;31.00;19.17;;;;;;;;;;4454150;32;20037;-67
2023/05/11 03:42:04;;;;;;;39.88;20.88;;;;;;;;;;4452547;32;20059;-67
2023/05/11 03:44:30;;;;;;;36.22;20.75;;;;;;;;;;4451022;32;20059;-67
2023/05/11 03:46:56;;;;;;;36.90;21.08;;;;;;;;;;4452999;32;20538;-67
2023/05/11 03:49:22;;;;;;;36.63;21.67;;;;;;;;;;4452793;32;20041;-67
2023/05/11 03:51:48;;;;;;;39.25;22.87;;;;;;;;;;4453730;32;20029;-67
2023/05/11 03:54:13;;;;;;;33.95;19.95;;;;;;;;;;4453672;32;20033;-66
2023/05/11 03:56:38;;;;;;;35.63;21.65;;;;;;;;;;4452905;32;20453;-67
2023/05/11 03:59:04;;;;;;;43.55;22.85;;;;;;;;;;4451218;32;20412;-68
2023/05/11 04:01:32;;;;;;;46.17;23.98;;;;;;;;;;4451221;32;20110;-66
2023/05/11 04:03:58;;;;;;;47.38;24.17;;;;;;;;;;4452208;32;20414;-67
2023/05/11 04:06:23;;;;;;;48.05;24.27;;;;;;;;;;4453562;32;20102;-66
2023/05/11 04:08:49;;;;;;;47.83;25.80;;;;;;;;;;4453037;32;20193;-67
2023/05/11 04:11:14;;;;;;;46.10;25.33;;;;;;;;;;4451779;32;20025;-67
2023/05/11 04:13:39;;;;;;;;;;;;;;;;;;4451547;32;20057;-67
2023/05/11 04:16:05;;;;;;;53.92;25.27;;;;;;;;;;4453410;32;19992;-67
2023/05/11 04:18:30;;;;;;;48.28;24.90;;;;;;;;;;4451110;32;20178;-67
2023/05/11 04:20:55;;;;;;;52.05;26.67;;;;;;;;;;4436755;32;20435;-67
2023/05/11 04:23:20;;;;;;;;;;;;;;;;;;4451068;32;20415;-68
2023/05/11 04:25:45;;;;;;;44.13;23.83;;;;;;;;;;4453004;32;19933;-67
2023/05/11 04:28:10;;;;;;;46.58;25.08;;;;;;;;;;4436795;32;20046;-68
2023/05/11 04:30:36;;;;;;;43.83;23.85;;;;;;;;;;4452809;32;20088;-67
2023/05/11 04:33:01;;;;;;;51.00;26.30;;;;;;;;;;4453193;32;20350;-67
2023/05/11 04:35:26;;;;;;;47.40;25.62;;;;;;;;;;4436525;32;20036;-67
2023/05/11 04:37:51;;;;;;;44.13;23.62;;;;;;;;;;4451779;32;20092;-67
2023/05/11 04:40:17;;;;;;;49.65;25.48;;;;;;;;;;4451040;32;20055;-67
2023/05/11 04:42:42;;;;;;;46.55;25.50;;;;;;;;;;4452402;32;20033;-67
2023/05/11 04:45:07;;;;;;;42.70;23.67;;;;;;;;;;4451739;32;20418;-68
2023/05/11 04:47:32;;;;;;;40.60;23.20;;;;;;;;;;4451953;32;20041;-67
2023/05/11 04:49:57;;;;;;;46.83;24.65;;;;;;;;;;4451156;32;20413;-67
2023/05/11 04:52:23;;;;;;;45.03;23.50;;;;;;;;;;4452317;32;20050;-68
2023/05/11 04:54:48;;;;;;;45.00;24.15;;;;;;;;;;4452507;32;20049;-67
2023/05/11 04:57:13;;;;;;;49.75;25.67;;;;;;;;;;4451443;32;20119;-68
2023/05/11 04:59:38;;;;;;;41.22;23.33;;;;;;;;;;4461089;32;20037;-69
2023/05/11 05:02:03;;;;;;;50.00;25.95;;;;;;;;;;4457325;32;20037;-67
2023/05/11 05:04:29;;;;;;;44.20;24.15;;;;;;;;;;4453354;32;20077;-66
2023/05/11 05:06:54;;;;;;;41.33;24.55;;;;;;;;;;4468040;32;20389;-67
2023/05/11 05:09:19;;;;;;;43.58;22.83;;;;;;;;;;4466374;32;20139;-67
2023/05/11 05:11:44;;;;;;;42.20;21.80;;;;;;;;;;4459828;32;20029;-66
2023/05/11 05:14:10;;;;;;;40.40;21.77;;;;;;;;;;4453451;32;20090;-67
2023/05/11 05:16:35;;;;;;;38.58;21.87;;;;;;;;;;4456087;32;20034;-66
2023/05/11 05:19:00;;;;;;;41.55;22.58;;;;;;;;;;4454789;32;20138;-67
2023/05/11 05:21:25;;;;;;;38.17;21.87;;;;;;;;;;4459857;32;20100;-67
2023/05/11 05:23:50;;;;;;;39.00;22.42;;;;;;;;;;4456386;32;20025;-67
2023/05/11 05:26:16;;;;;;;35.28;21.12;;;;;;;;;;4451189;32;20052;-67
2023/05/11 05:28:41;;;;;;;38.65;22.85;;;;;;;;;;4451466;32;20058;-67
2023/05/11 05:31:06;;;;;;;38.95;22.05;;;;;;;;;;4452771;32;20030;-66
2023/05/11 05:33:31;;;;;;;34.05;20.62;;;;;;;;;;4452668;32;20026;-66
2023/05/11 05:35:56;;;;;;;36.30;21.20;;;;;;;;;;4451647;32;20029;-67
2023/05/11 05:38:21;;;;;;;34.88;21.35;;;;;;;;;;4452917;32;20038;-66
2023/05/11 05:40:47;;;;;;;35.65;20.30;;;;;;;;;;4452420;32;20025;-66
2023/05/11 05:43:12;;;;;;;40.63;23.35;;;;;;;;;;4463055;32;20055;-66
2023/05/11 05:45:37;;;;;;;38.22;22.35;;;;;;;;;;4462855;32;20029;-66
2023/05/11 05:48:04;;;;;;;34.95;20.45;;;;;;;;;;4458568;32;20511;-67
2023/05/11 05:50:29;;;;;;;32.70;20.35;;;;;;;;;;4457123;32;20161;-67
2023/05/11 05:52:55;;;;;;;36.75;21.20;;;;;;;;;;4457473;32;20034;-67
2023/05/11 05:55:21;;;;;;;34.33;21.17;;;;;;;;;;4454965;32;20399;-69
2023/05/11 05:57:46;;;;;;;32.35;20.88;;;;;;;;;;4443996;32;20453;-66
2023/05/11 06:00:12;;;;;;;33.92;19.87;;;;;;;;;;4455353;32;20021;-68
2023/05/11 06:02:37;;;;;;;34.60;21.77;;;;;;;;;;4463443;32;20055;-68
2023/05/11 06:05:02;;;;;;;31.67;20.25;;;;;;;;;;4455809;32;20383;-67
2023/05/11 06:07:27;;;;;;;30.90;20.08;;;;;;;;;;4453453;32;20025;-68
2023/05/11 06:09:53;;;;;;;32.90;20.10;;;;;;;;;;4435700;32;20037;-67
2023/05/11 06:12:18;;;;;;;30.33;19.73;;;;;;;;;;4436325;32;20395;-67
2023/05/11 06:14:43;;;;;;;30.95;20.00;;;;;;;;;;4452566;32;20078;-67
2023/05/11 06:17:08;;;;;;;33.45;20.35;;;;;;;;;;4453317;32;20025;-67
2023/05/11 06:19:34;;;;;;;32.35;19.95;;;;;;;;;;4454798;32;20044;-67
2023/05/11 06:21:59;;;;;;;36.50;21.58;;;;;;;;;;4453912;32;20029;-67
2023/05/11 06:24:24;;;;;;;34.22;22.37;;;;;;;;;;4462224;32;20093;-66
2023/05/11 06:26:49;;;;;;;36.58;21.62;;;;;;;;;;4468604;32;20155;-67
2023/05/11 06:29:14;;;;;;;34.17;21.33;;;;;;;;;;4470324;32;20373;-66
2023/05/11 06:31:40;;;;;;;33.55;19.67;;;;;;;;;;4455548;32;20393;-66
2023/05/11 06:34:05;;;;;;;36.28;20.35;;;;;;;;;;4469772;32;20169;-68
2023/05/11 06:36:31;;;;;;;36.13;21.48;;;;;;;;;;4468878;32;20036;-66
2023/05/11 06:38:56;;;;;;;40.15;22.75;;;;;;;;;;4456009;32;20069;-66
2023/05/11 06:41:21;;;;;;;35.95;22.58;;;;;;;;;;4468382;32;20041;-66
2023/05/11 06:43:46;;;;;;;50.03;24.75;;;;;;;;;;4470102;32;20080;-67
2023/05/11 06:46:15;;;;;;;46.03;24.85;;;;;;;;;;4470395;32;20025;-67
2023/05/11 06:48:40;;;;;;;48.15;25.37;;;;;;;;;;4470260;32;20143;-67
2023/05/11 06:51:08;;;;;;;41.25;22.92;;;;;;;;;;4469360;32;20037;-67
2023/05/11 06:53:33;;;;;;;40.30;23.05;;;;;;;;;;4463297;32;20030;-68
2023/05/11 06:55:58;;;;;;;34.55;21.85;;;;;;;;;;4452831;32;20041;-67
2023/05/11 06:58:23;;;;;;;40.15;21.62;;;;;;;;;;4452314;32;20362;-67
2023/05/11 07:00:49;;;;;;;41.37;23.85;;;;;;;;;;4452983;32;20535;-67
2023/05/11 07:03:14;;;;;;;40.00;23.45;;;;;;;;;;4453396;32;20406;-67
2023/05/11 07:05:39;;;;;;;41.05;24.10;;;;;;;;;;4454142;32;20173;-67
2023/05/11 07:08:05;;;;;;;37.80;22.45;;;;;;;;;;4452679;32;20041;-67
2023/05/11 07:10:30;;;;;;;44.78;25.35;;;;;;;;;;4453589;32;20085;-67
2023/05/11 07:12:55;;;;;;;40.38;25.00;;;;;;;;;;4452316;32;20409;-67
2023/05/11 07:15:21;;;;;;;43.63;23.00;;;;;;;;;;4452605;32;20029;-67
2023/05/11 07:17:46;;;;;;;39.85;21.58;;;;;;;;;;4452629;32;20128;-67
2023/05/11 07:20:11;;;;;;;35.00;21.50;;;;;;;;;;4452708;32;20045;-69
2023/05/11 07:22:37;;;;;;;40.28;22.30;;;;;;;;;;4451836;32;20025;-66
2023/05/11 07:25:03;;;;;;;45.27;23.67;;;;;;;;;;4452837;32;20029;-66
2023/05/11 07:27:30;;;;;;;44.00;24.23;;;;;;;;;;4451444;32;20124;-66
2023/05/11 07:29:55;;;;;;;39.13;23.83;;;;;;;;;;4452537;32;20033;-66
2023/05/11 07:32:20;;;;;;;48.67;24.55;;;;;;;;;;4453639;32;20033;-66
2023/05/11 07:34:45;;;;;;;42.85;26.00;;;;;;;;;;4453081;32;20071;-66
2023/05/11 07:37:11;;;;;;;37.83;24.93;;;;;;;;;;4455009;32;20381;-66
2023/05/11 07:39:36;;;;;;;42.20;24.25;;;;;;;;;;4453899;32;20136;-66
2023/05/11 07:42:01;;;;;;;44.30;23.55;;;;;;;;;;4452279;32;20026;-67
2023/05/11 07:44:26;;;;;;;44.63;25.20;;;;;;;;;;4451817;32;20033;-67
2023/05/11 07:46:51;;;;;;;44.22;24.00;;;;;;;;;;4452958;32;20026;-67
2023/05/11 07:49:17;;;;;;;41.90;23.62;;;;;;;;;;4452138;32;20410;-67
2023/05/11 07:51:42;;;;;;;43.20;23.40;;;;;;;;;;4452680;32;20104;-67
2023/05/11 07:54:07;;;;;;;40.45;25.08;;;;;;;;;;4452119;32;20047;-68
2023/05/11 07:56:33;;;;;;;46.17;24.87;;;;;;;;;;4451504;32;20063;-66
2023/05/11 07:58:58;;;;;;;40.70;25.10;;;;;;;;;;4453789;32;20037;-66
2023/05/11 08:01:23;;;;;;;44.25;25.08;;;;;;;;;;4453640;32;20082;-67
2023/05/11 08:03:48;;;;;;;45.58;26.48;;;;;;;;;;4450880;32;20029;-67
2023/05/11 08:06:14;;;;;;;39.90;22.70;;;;;;;;;;4457058;32;20045;-66
2023/05/11 08:08:39;;;;;;;44.63;24.15;;;;;;;;;;4451314;32;20029;-66
2023/05/11 08:11:04;;;;;;;44.25;26.90;;;;;;;;;;4451260;32;20068;-66
2023/05/11 08:13:30;;;;;;;36.92;23.20;;;;;;;;;;4452248;32;20117;-66
2023/05/11 08:15:55;;;;;;;39.63;25.17;;;;;;;;;;4450614;32;20395;-66
2023/05/11 08:18:20;;;;;;;38.22;22.35;;;;;;;;;;4450556;32;20097;-66
2023/05/11 08:20:45;;;;;;;39.65;25.40;;;;;;;;;;4451443;32;20057;-68
2023/05/11 08:23:16;;;;;;;38.28;23.08;;;;;;;;;;4451286;32;20396;-67
2023/05/11 08:25:41;;;;;;;44.33;25.05;;;;;;;;;;4451909;32;20094;-68
2023/05/11 08:28:06;;;;;;;42.40;23.95;;;;;;;;;;4454781;32;20370;-67
2023/05/11 08:30:31;;;;;;;39.65;23.08;;;;;;;;;;4456052;32;20025;-66
2023/05/11 08:32:57;;;;;;;51.37;23.67;;;;;;;;;;4454578;32;20360;-67
2023/05/11 08:35:23;;;;;;;41.45;23.27;;;;;;;;;;4467190;32;20101;-67
2023/05/11 08:37:48;;;;;;;50.78;22.55;;;;;;;;;;4452894;32;20119;-67
2023/05/11 08:40:13;;;;;;;48.60;22.83;;;;;;;;;;4467287;32;20025;-67
2023/05/11 08:42:39;;;;;;;42.22;23.98;;;;;;;;;;4467902;32;20021;-68
2023/05/11 08:45:05;;;;;;;32.10;21.50;;;;;;;;;;4462287;32;20086;-66
2023/05/11 08:47:30;;;;;;;30.37;20.85;;;;;;;;;;4450653;32;20325;-67
2023/05/11 08:49:57;;;;;;;37.63;22.13;;;;;;;;;;4452197;32;20064;-67
2023/05/11 08:52:22;;;;;;;27.10;19.00;;;;;;;;;;4451170;32;20055;-67
2023/05/11 08:54:47;;;;;;;38.00;20.17;;;;;;;;;;4452923;32;20025;-67
2023/05/11 08:57:13;;;;;;;39.15;21.05;;;;;;;;;;4460969;32;20029;-67
2023/05/11 08:59:39;;;;;;;36.40;20.30;;;;;;;;;;4442566;32;20060;-68
2023/05/11 09:02:05;;;;;;;35.00;19.83;;;;;;;;;;4450194;32;20074;-66
2023/05/11 09:04:31;;;;;;;25.25;18.30;;;;;;;;;;4450566;32;20061;-68
2023/05/11 09:06:57;;;;;;;31.35;17.20;;;;;;;;;;4451441;32;20051;-67
2023/05/11 09:09:22;;;;;;;24.77;16.42;;;;;;;;;;4451566;32;20037;-66
2023/05/11 09:11:48;;;;;;;31.20;16.23;;;;;;;;;;4456836;32;20048;-68
2023/05/11 09:14:13;;;;;;;23.45;16.80;;;;;;;;;;4466499;32;20029;-67
2023/05/11 09:16:38;;;;;;;23.98;16.08;;;;;;;;;;4455849;32;20056;-68
2023/05/11 09:19:04;;;;;;;19.33;13.97;;;;;;;;;;4468096;32;20410;-69
2023/05/11 09:21:30;;;;;;;21.60;15.55;;;;;;;;;;4446454;32;20120;-68
2023/05/11 09:23:57;;;;;;;19.23;14.60;;;;;;;;;;4452451;32;20034;-67
2023/05/11 09:26:23;;;;;;;25.33;15.75;;;;;;;;;;4451638;32;20037;-67
2023/05/11 09:28:49;;;;;;;31.25;16.00;;;;;;;;;;4451922;32;20033;-68
2023/05/11 09:31:33;;;;;;;25.48;17.25;;;;;;;;;;4451986;32;20473;-66
2023/05/11 09:34:07;;;;;;;32.58;17.58;;;;;;;;;;4450187;32;20029;-68
2023/05/11 09:36:33;;;;;;;20.37;15.73;;;;;;;;;;4452567;32;20161;-68
2023/05/11 09:39:01;;;;;;;22.30;15.93;;;;;;;;;;4454277;32;20041;-67
2023/05/11 09:41:26;;;;;;;21.67;16.30;;;;;;;;;;4464940;32;20366;-67
2023/05/11 09:43:51;;;;;;;20.20;16.23;;;;;;;;;;4450046;32;20026;-67
2023/05/11 09:46:19;;;;;;;24.92;16.70;;;;;;;;;;4446452;32;20059;-66
2023/05/11 09:48:56;;;;;;;31.73;17.35;;;;;;;;;;4449880;32;20156;-67
2023/05/11 09:51:28;;;;;;;31.17;16.85;;;;;;;;;;4453757;32;20463;-65
2023/05/11 09:53:53;;;;;;;26.95;16.77;;;;;;;;;;4455155;32;20449;-67
2023/05/11 09:56:18;;;;;;;29.85;18.50;;;;;;;;;;4454635;32;20018;-68
2023/05/11 09:58:48;;;;;;;30.40;17.48;;;;;;;;;;4455078;32;20021;-67
2023/05/11 10:01:14;;;;;;;19.30;15.23;;;;;;;;;;4454987;32;20051;-67
2023/05/11 10:03:46;;;;;;;30.30;16.62;;;;;;;;;;4454837;32;20025;-67
2023/05/11 10:06:11;;;;;;;20.90;14.90;;;;;;;;;;4453435;32;20037;-67
2023/05/11 10:08:36;;;;;;;20.55;14.27;;;;;;;;;;4454542;32;20017;-67
2023/05/11 10:11:02;;;;;;;20.58;13.57;;;;;;;;;;4452762;32;20087;-67
2023/05/11 10:13:28;;;;;;;18.80;14.43;;;;;;;;;;4454271;32;20033;-66
2023/05/11 10:15:54;;;;;;;21.90;15.30;;;;;;;;;;4454780;32;20038;-66
2023/05/11 10:18:19;;;;;;;24.73;17.08;;;;;;;;;;4438583;32;20039;-66
2023/05/11 10:20:45;;;;;;;31.33;21.40;;;;;;;;;;4449210;32;20099;-67
2023/05/11 10:23:11;;;;;;;26.50;20.33;;;;;;;;;;4454235;32;20095;-67
2023/05/11 10:25:36;;;;;;;32.83;23.10;;;;;;;;;;4452963;32;20022;-68
2023/05/11 10:28:02;;;;;;;27.40;20.08;;;;;;;;;;4453081;32;20048;-67
2023/05/11 10:30:27;;;;;;;32.00;21.67;;;;;;;;;;4454092;32;20356;-67
2023/05/11 10:32:54;;;;;;;34.53;23.00;;;;;;;;;;4438923;32;20191;-73
2023/05/11 10:35:19;;;;;;;20.17;14.65;;;;;;;;;;4453580;32;20048;-67
2023/05/11 10:37:45;;;;;;;21.55;15.13;;;;;;;;;;4453629;32;20026;-67
2023/05/11 10:40:10;;;;;;;23.17;16.73;;;;;;;;;;4452574;32;20087;-67
2023/05/11 10:42:55;;;;;;;27.92;18.62;;;;;;;;;;4438504;32;20350;-66
2023/05/11 10:45:27;;;;;;;27.90;18.87;;;;;;;;;;4449113;32;20082;-68
2023/05/11 10:48:11;;;;;;;27.80;19.30;;;;;;;;;;4468047;32;20025;-66
2023/05/11 10:50:46;;;;;;;28.20;19.45;;;;;;;;;;4454454;32;20041;-67
2023/05/11 10:53:11;;;;;;;29.63;19.67;;;;;;;;;;4470015;32;20021;-68
2023/05/11 10:55:49;;;;;;;27.30;21.00;;;;;;;;;;4468552;32;20048;-68
2023/05/11 10:58:15;;;;;;;27.50;19.48;;;;;;;;;;4454416;32;20371;-67
2023/05/11 11:00:46;;;;;;;29.00;19.98;;;;;;;;;;4439641;32;20064;-67
2023/05/11 11:03:12;;;;;;;24.90;18.52;;;;;;;;;;4437101;32;20056;-66
2023/05/11 11:05:37;;;;;;;27.98;19.75;;;;;;;;;;4452675;32;20070;-69
2023/05/11 11:08:03;;;;;;;33.72;21.17;;;;;;;;;;4453557;32;20076;-67
2023/05/11 11:10:38;;;;;;;29.80;20.42;;;;;;;;;;4438107;32;20021;-67
2023/05/11 11:13:07;;;;;;;29.15;20.27;;;;;;;;;;4439093;32;20036;-67
2023/05/11 11:15:51;;;;;;;27.48;19.67;;;;;;;;;;4451934;32;20025;-66
2023/05/11 11:18:22;;;;;;;28.12;19.62;;;;;;;;;;4408112;32;20046;-67
2023/05/11 11:20:49;;;;;;;25.20;17.45;;;;;;;;;;4421323;32;20030;-67
2023/05/11 11:23:33;;;;;;;20.45;15.02;;;;;;;;;;4422033;32;20074;-67
2023/05/11 11:25:58;;;;;;;22.13;14.18;;;;;;;;;;4422703;32;20030;-67
2023/05/11 11:28:23;;;;;;;21.92;14.50;;;;;;;;;;4421325;32;20392;-67
2023/05/11 11:31:08;;;;;;;23.10;15.40;;;;;;;;;;4422907;32;20052;-66
2023/05/11 11:33:34;;;;;;;22.52;15.45;;;;;;;;;;4416143;32;20046;-67
2023/05/11 11:35:59;;;;;;;20.33;15.90;;;;;;;;;;4407858;32;20337;-66
2023/05/11 11:38:24;;;;;;;22.77;15.20;;;;;;;;;;4409766;32;20046;-68
2023/05/11 11:40:53;;;;;;;20.92;15.65;;;;;;;;;;4421094;32;20053;-68
2023/05/11 11:43:22;;;;;;;24.25;15.57;;;;;;;;;;4421414;32;20026;-67
2023/05/11 11:45:54;;;;;;;20.48;13.90;;;;;;;;;;4421414;32;20060;-67
2023/05/11 11:48:39;;;;;;;19.05;13.43;;;;;;;;;;4420572;32;20060;-68
2023/05/11 11:51:05;;;;;;;11.20;7.62;;;;;;;;;;4422674;32;20323;-66
2023/05/11 11:53:37;;;;;;;9.27;5.53;;;;;;;;;;4421096;32;20123;-67
2023/05/11 11:56:22;;;;;;;11.57;8.07;;;;;;;;;;4421889;32;20071;-67
2023/05/11 11:58:47;;;;;;;10.38;6.87;;;;;;;;;;4413152;32;20044;-67
2023/05/11 12:01:13;;;;;;;8.40;5.25;;;;;;;;;;4421790;32;20411;-66
2023/05/11 12:03:40;;;;;;;5.22;4.50;;;;;;;;;;4422590;32;20023;-68
2023/05/11 12:06:06;;;;;;;7.72;4.80;;;;;;;;;;4422094;32;20037;-68
2023/05/11 12:08:33;;;;;;;10.45;5.00;;;;;;;;;;4420360;32;20030;-67
2023/05/11 12:10:59;;;;;;;9.45;4.35;;;;;;;;;;4421257;32;20038;-67
2023/05/11 12:13:25;;;;;;;10.13;5.62;;;;;;;;;;4421656;32;20022;-68
2023/05/11 12:16:06;;;;;;;14.48;6.57;;;;;;;;;;4422167;32;20166;-69
2023/05/11 12:18:31;;;;;;;10.18;5.57;;;;;;;;;;4419334;32;20048;-70
2023/05/11 12:20:56;;;;;;;7.03;4.85;;;;;;;;;;4421446;32;20022;-70
2023/05/11 12:23:21;;;;;;;8.95;6.05;;;;;;;;;;4422288;32;20026;-69
2023/05/11 12:25:59;;;;;;;7.53;5.80;;;;;;;;;;4419819;32;20105;-69
2023/05/11 12:28:24;;;;;;;9.73;6.57;;;;;;;;;;4418693;32;20121;-70
2023/05/11 12:30:53;;;;;;;12.63;7.35;;;;;;;;;;4420428;32;20095;-69
2023/05/11 12:33:19;;;;;;;14.30;9.50;;;;;;;;;;4422070;32;20075;-70
2023/05/11 12:35:45;;;;;;;13.38;9.95;;;;;;;;;;4421919;32;20025;-69
2023/05/11 12:38:10;;;;;;;17.58;9.77;;;;;;;;;;4421156;32;20054;-68
2023/05/11 12:40:35;;;;;;;16.87;10.65;;;;;;;;;;4420825;32;20068;-69
2023/05/11 12:43:01;;;;;;;17.62;9.70;;;;;;;;;;4420593;32;20022;-72
2023/05/11 12:45:26;;;;;;;13.77;9.18;;;;;;;;;;4421216;32;20022;-69
2023/05/11 12:47:52;;;;;;;17.80;10.82;;;;;;;;;;4421977;32;20022;-69
2023/05/11 12:50:18;;;;;;;14.43;9.13;;;;;;;;;;4411365;32;20054;-69
2023/05/11 12:52:44;;;;;;;15.93;10.15;;;;;;;;;;4407553;32;20076;-69
2023/05/11 12:55:10;;;;;;;14.27;9.68;;;;;;;;;;4404708;32;20363;-69
2023/05/11 12:57:39;;;;;;;10.60;7.12;;;;;;;;;;4405394;32;20057;-69
2023/05/11 13:00:04;;;;;;;10.65;7.35;;;;;;;;;;4404549;32;20019;-69
2023/05/11 13:02:29;;;;;;;9.43;6.37;;;;;;;;;;4406654;32;20419;-69
2023/05/11 13:04:54;;;;;;;10.60;7.68;;;;;;;;;;4405133;32;20022;-68
2023/05/11 13:07:23;;;;;;;17.45;8.40;;;;;;;;;;4404917;32;20066;-67
2023/05/11 13:09:55;;;;;;;8.05;6.22;;;;;;;;;;4409357;32;20033;-68
2023/05/11 13:12:21;;;;;;;8.63;5.80;;;;;;;;;;4421322;32;20061;-67
2023/05/11 13:14:47;;;;;;;8.15;5.72;;;;;;;;;;4421277;32;20434;-67
2023/05/11 13:17:13;;;;;;;10.27;6.43;;;;;;;;;;4420150;32;20026;-68
2023/05/11 13:19:39;;;;;;;6.30;5.05;;;;;;;;;;4421430;32;20022;-68
2023/05/11 13:22:05;;;;;;;6.03;4.75;;;;;;;;;;4419384;32;20388;-67
2023/05/11 13:24:34;;;;;;;7.40;5.47;;;;;;;;;;4419189;32;20464;-69
2023/05/11 13:26:59;;;;;;;9.52;6.95;;;;;;;;;;4419481;32;20056;-68
2023/05/11 13:29:25;;;;;;;9.25;6.78;;;;;;;;;;4421033;32;20105;-68
2023/05/11 13:31:51;;;;;;;10.55;6.15;;;;;;;;;;4421103;32;20064;-68
2023/05/11 13:34:16;;;;;;;8.13;6.37;;;;;;;;;;4421465;32;20104;-69
2023/05/11 13:36:42;;;;;;;17.62;8.23;;;;;;;;;;4419787;32;20355;-68
2023/05/11 13:39:07;;;;;;;11.82;8.90;;;;;;;;;;4405594;32;20109;-68
2023/05/11 13:41:32;;;;;;;16.92;10.35;;;;;;;;;;4403390;32;20115;-69
2023/05/11 13:43:58;;;;;;;20.65;11.88;;;;;;;;;;4404572;32;20052;-68
2023/05/11 13:46:23;;;;;;;16.50;11.00;;;;;;;;;;4418759;32;20029;-69
2023/05/11 13:48:48;;;;;;;42.38;13.43;;;;;;;;;;4421370;32;20046;-67
2023/05/11 13:51:13;;;;;;;18.35;11.00;;;;;;;;;;4420546;32;20059;-68
2023/05/11 13:53:38;;;;;;;37.92;14.55;;;;;;;;;;4414828;32;20022;-67
2023/05/11 13:56:04;;;;;;;17.83;13.30;;;;;;;;;;4407031;32;20479;-68
2023/05/11 13:58:29;;;;;;;14.52;9.50;;;;;;;;;;4405960;32;20105;-67
2023/05/11 14:00:54;;;;;;;14.48;10.45;;;;;;;;;;4405028;32;20049;-67
2023/05/11 14:03:20;;;;;;;20.37;11.25;;;;;;;;;;4405919;32;20054;-69
2023/05/11 14:05:48;;;;;;;12.75;8.48;;;;;;;;;;4405135;32;20031;-67
2023/05/11 14:08:14;;;;;;;10.43;6.80;;;;;;;;;;4404482;32;20030;-68
2023/05/11 14:10:39;;;;;;;9.77;6.70;;;;;;;;;;4419678;32;20053;-67
2023/05/11 14:13:07;;;;;;;7.10;5.07;;;;;;;;;;4418856;32;20451;-67
2023/05/11 14:15:33;;;;;;;7.85;5.40;;;;;;;;;;4418869;32;20042;-67
2023/05/11 14:17:59;;;;;;;7.80;5.70;;;;;;;;;;4420570;32;20064;-68
2023/05/11 14:20:24;;;;;;;8.70;6.40;;;;;;;;;;4420316;32;20030;-68